Sand Ridge, Illinois
Current Conditions -  °F | °C
As of 1:52 PM on Thursday 30 Oct 2014 (Local Time) from KMDH Reporting Station
Few Clouds Few Clouds  
Wind Chill: 62°   Ceiling: Unl
Heat Index: 62°   Visibility: 10mi
Dew Point: 38°   Wind: 7mph
Humidity: 41%   Direction: NA
Pressure: 30.08"   Gusts: NA
Location:  37.7438°N, 89.4409°W
Report Text: KMDH 301852Z VRB06KT 10SM FEW095 17/03 A3008 RMK AO2 SLP185 T01670033
Loading
Personal Weather Stations






























Interactive Weather Map
Tropical Storm Tracking
New forecast layout! Learn more

10-Day Weather Forecast

Advertisements
Track Severe Weather on mobile